Time;durP1;ratioP1;P1;durP2;ratioP2;P2;SDS_P1;SDS_P2;PMS_P1;PMS_P2;Temp;Humidity;BMP_temperature;BMP_pressure;BME280_temperature;BME280_humidity;BME280_pressure;Samples;Min_cycle;Max_cycle;Signal;HPM_P1;HPM_P2
2022/02/26 00:00:04;;;;;;;17.92;9.75;;;23.20;36.90;;;;;;6135610;28;83118;-61
2022/02/26 00:03:05;;;;;;;19.27;11.05;;;23.20;36.80;;;;;;6146401;28;83776;-62
2022/02/26 00:06:05;;;;;;;16.10;9.52;;;23.20;36.80;;;;;;6141449;28;83269;-62
2022/02/26 00:09:06;;;;;;;21.33;10.50;;;23.10;36.50;;;;;;6136031;28;82993;-62
2022/02/26 00:12:06;;;;;;;18.30;10.18;;;23.10;36.40;;;;;;6126955;28;83117;-61
2022/02/26 00:15:07;;;;;;;18.90;10.35;;;23.10;36.60;;;;;;6139728;28;83632;-61
2022/02/26 00:18:08;;;;;;;16.67;9.57;;;23.10;36.60;;;;;;6141701;28;83796;-61
2022/02/26 00:21:08;;;;;;;16.55;9.07;;;23.20;36.50;;;;;;6134553;28;83516;-62
2022/02/26 00:27:53;;;;;;;16.77;8.43;;;23.10;36.60;;;;;;6133034;28;83545;-62
2022/02/26 00:30:55;;;;;;;16.83;8.25;;;23.10;36.20;;;;;;6123743;28;80517;-61
2022/02/26 00:33:56;;;;;;;16.38;8.68;;;23.10;36.50;;;;;;6124513;28;83161;-61
2022/02/26 00:36:56;;;;;;;17.52;8.30;;;23.10;36.50;;;;;;6129890;28;80809;-62
2022/02/26 00:39:57;;;;;;;14.95;7.90;;;23.00;36.50;;;;;;6139879;28;80518;-62
2022/02/26 00:42:57;;;;;;;14.20;7.45;;;23.00;36.30;;;;;;6126842;28;81064;-63
2022/02/26 00:45:58;;;;;;;13.75;7.80;;;23.00;36.60;;;;;;6125965;28;81901;-62
2022/02/26 00:52:18;;;;;;;12.68;7.78;;;23.00;36.30;;;;;;6149962;28;81470;-62
2022/02/26 00:55:18;;;;;;;16.42;8.02;;;23.00;36.40;;;;;;6122865;28;81782;-62
2022/02/26 00:58:19;;;;;;;11.80;6.72;;;23.00;35.90;;;;;;6121235;28;80070;-62
2022/02/26 01:01:19;;;;;;;13.50;7.50;;;23.00;36.30;;;;;;6133327;28;80520;-62
2022/02/26 01:04:20;;;;;;;14.68;7.88;;;23.00;36.20;;;;;;6139949;28;80400;-62
2022/02/26 01:07:20;;;;;;;11.60;6.60;;;23.00;36.20;;;;;;6145644;28;81381;-62
2022/02/26 01:10:21;;;;;;;14.40;6.78;;;22.90;35.90;;;;;;6153190;28;80464;-62
2022/02/26 01:13:21;;;;;;;14.65;7.03;;;22.90;36.10;;;;;;6150683;28;80757;-62
2022/02/26 01:16:22;;;;;;;9.65;6.15;;;22.90;36.10;;;;;;6151277;28;81322;-62
2022/02/26 01:19:22;;;;;;;13.40;6.45;;;22.90;36.00;;;;;;6144477;28;80418;-62
2022/02/26 01:22:23;;;;;;;15.10;7.75;;;22.90;36.00;;;;;;6153537;28;80554;-62
2022/02/26 01:25:23;;;;;;;12.35;7.65;;;22.90;35.80;;;;;;6124236;28;80601;-62
2022/02/26 01:28:24;;;;;;;11.52;6.45;;;22.90;35.40;;;;;;6143259;28;80954;-62
2022/02/26 01:31:25;;;;;;;11.02;6.88;;;23.00;35.70;;;;;;6136838;28;80320;-63
2022/02/26 01:34:25;;;;;;;12.73;6.70;;;23.00;35.80;;;;;;6147063;28;81236;-62
2022/02/26 01:37:26;;;;;;;11.20;6.82;;;23.00;34.90;;;;;;6148141;28;80949;-62
2022/02/26 01:40:26;;;;;;;13.77;6.57;;;23.00;35.60;;;;;;6129543;28;80312;-62
2022/02/26 01:43:27;;;;;;;11.32;6.53;;;23.00;35.60;;;;;;6124501;28;83750;-62
2022/02/26 01:46:27;;;;;;;11.43;6.82;;;23.00;35.10;;;;;;6120500;28;81558;-63
2022/02/26 01:49:28;;;;;;;14.85;7.38;;;23.00;35.40;;;;;;6128313;28;82707;-63
2022/02/26 01:52:28;;;;;;;13.35;6.80;;;23.00;35.30;;;;;;6155065;28;80879;-62
2022/02/26 01:55:29;;;;;;;13.27;7.30;;;23.00;35.30;;;;;;6132939;28;80097;-62
2022/02/26 01:58:30;;;;;;;8.82;5.78;;;23.00;35.80;;;;;;6156122;28;80433;-62
2022/02/26 02:01:30;;;;;;;14.90;7.13;;;23.00;35.40;;;;;;6150655;28;83145;-63
2022/02/26 02:04:31;;;;;;;12.70;6.90;;;23.00;35.20;;;;;;6147909;28;80277;-63
2022/02/26 02:07:32;;;;;;;11.30;6.72;;;23.00;35.20;;;;;;6151538;28;81948;-62
2022/02/26 02:10:32;;;;;;;14.27;6.93;;;23.00;35.30;;;;;;6129429;28;81619;-62
2022/02/26 02:13:34;;;;;;;10.70;6.88;;;22.90;35.70;;;;;;6136832;28;81598;-62
2022/02/26 02:16:35;;;;;;;14.82;7.32;;;22.90;35.30;;;;;;6149491;28;81476;-63
2022/02/26 02:19:35;;;;;;;12.88;7.20;;;22.90;35.10;;;;;;6140439;28;81702;-62
2022/02/26 02:22:36;;;;;;;13.05;7.15;;;22.90;35.10;;;;;;6151316;28;81469;-63
2022/02/26 02:25:37;;;;;;;15.60;8.00;;;22.90;35.20;;;;;;6148329;28;80469;-62
2022/02/26 02:28:38;;;;;;;12.35;7.45;;;22.90;35.20;;;;;;6135208;28;81042;-63
2022/02/26 02:31:39;;;;;;;11.65;6.85;;;22.80;34.70;;;;;;6152993;28;80300;-63
2022/02/26 02:34:39;;;;;;;12.32;7.25;;;22.90;35.20;;;;;;6128211;28;83789;-62
2022/02/26 02:37:40;;;;;;;15.32;7.72;;;22.80;35.20;;;;;;6144458;28;81622;-62
2022/02/26 02:40:40;;;;;;;11.85;7.07;;;22.80;34.80;;;;;;6129479;28;81904;-63
2022/02/26 02:43:41;;;;;;;15.00;8.43;;;22.80;34.70;;;;;;6133811;28;80410;-63
2022/02/26 02:46:41;;;;;;;13.95;7.50;;;22.80;34.70;;;;;;6134723;28;80165;-63
2022/02/26 02:49:43;;;;;;;14.40;7.97;;;22.80;34.80;;;;;;6138505;28;80408;-63
2022/02/26 02:52:44;;;;;;;13.10;7.70;;;22.80;35.80;;;;;;6136237;28;81633;-63
2022/02/26 02:55:44;;;;;;;13.23;7.47;;;22.80;34.90;;;;;;6140073;28;81103;-62
2022/02/26 02:58:45;;;;;;;15.27;8.07;;;22.80;35.20;;;;;;6140704;28;80691;-63
2022/02/26 03:01:45;;;;;;;13.75;8.07;;;22.80;34.60;;;;;;6149124;28;80500;-63
2022/02/26 03:04:46;;;;;;;14.82;7.60;;;22.80;34.70;;;;;;6143859;28;81417;-63
2022/02/26 03:07:46;;;;;;;15.60;7.93;;;22.80;35.20;;;;;;6151876;28;81088;-63
2022/02/26 03:10:47;;;;;;;17.60;8.82;;;22.80;34.60;;;;;;6133225;28;80676;-63
2022/02/26 03:13:48;;;;;;;12.70;7.50;;;22.80;34.70;;;;;;6150880;28;80614;-63
2022/02/26 03:16:48;;;;;;;15.65;7.43;;;22.80;34.90;;;;;;6137180;28;80739;-62
2022/02/26 03:19:49;;;;;;;14.43;7.75;;;22.80;34.40;;;;;;6153176;28;80601;-63
2022/02/26 03:22:50;;;;;;;16.33;8.70;;;22.80;35.10;;;;;;6152483;28;80332;-63
2022/02/26 03:25:50;;;;;;;16.10;8.02;;;22.80;34.30;;;;;;6145321;28;80611;-62
2022/02/26 03:28:51;;;;;;;14.25;7.05;;;22.80;35.10;;;;;;6138695;28;82206;-63
2022/02/26 03:31:51;;;;;;;15.00;8.27;;;22.80;34.60;;;;;;6134774;28;80996;-63
2022/02/26 03:34:52;;;;;;;16.85;7.57;;;22.80;34.50;;;;;;6140792;28;83359;-63
2022/02/26 03:37:52;;;;;;;14.05;8.15;;;22.80;34.10;;;;;;6132756;28;80363;-63
2022/02/26 03:40:53;;;;;;;10.95;6.50;;;22.80;34.20;;;;;;6149512;28;81557;-62
2022/02/26 03:43:54;;;;;;;12.98;7.30;;;22.80;34.50;;;;;;6126112;28;80259;-62
2022/02/26 03:46:54;;;;;;;12.15;7.35;;;22.80;34.30;;;;;;6128026;28;80574;-62
2022/02/26 03:49:55;;;;;;;12.88;6.72;;;22.80;34.80;;;;;;6121520;28;81512;-62
2022/02/26 03:52:55;;;;;;;12.27;7.40;;;22.80;34.00;;;;;;6116527;28;81696;-61
2022/02/26 03:55:56;;;;;;;13.90;6.95;;;22.80;34.40;;;;;;6114594;28;81851;-62
2022/02/26 03:58:56;;;;;;;11.40;6.25;;;22.80;34.20;;;;;;6127888;28;80037;-62
2022/02/26 04:01:57;;;;;;;12.60;6.28;;;22.80;34.10;;;;;;6145132;28;80520;-62
2022/02/26 04:04:57;;;;;;;11.70;6.35;;;22.80;34.20;;;;;;6144185;28;80419;-62
2022/02/26 04:07:58;;;;;;;11.05;6.28;;;22.80;34.50;;;;;;6147469;28;80326;-62
2022/02/26 04:10:59;;;;;;;11.93;6.65;;;22.80;34.20;;;;;;6150119;28;80372;-64
2022/02/26 04:14:00;;;;;;;11.75;6.50;;;22.80;34.30;;;;;;6148305;28;81062;-63
2022/02/26 04:17:00;;;;;;;11.13;6.53;;;22.90;34.40;;;;;;6133759;28;81382;-63
2022/02/26 04:20:01;;;;;;;7.68;5.15;;;23.00;34.10;;;;;;6134032;28;81155;-63
2022/02/26 04:23:02;;;;;;;10.38;6.85;;;23.00;33.80;;;;;;6133037;28;80851;-63
2022/02/26 04:26:02;;;;;;;10.80;6.30;;;23.10;33.70;;;;;;6139799;28;80582;-63
2022/02/26 04:29:03;;;;;;;9.40;5.63;;;23.10;33.50;;;;;;6134020;28;80907;-63
2022/02/26 04:32:03;;;;;;;7.68;4.75;;;23.10;33.40;;;;;;6144486;28;83757;-63
2022/02/26 04:35:04;;;;;;;8.07;4.90;;;23.20;34.00;;;;;;6122016;28;83435;-65
2022/02/26 04:38:04;;;;;;;8.68;5.30;;;23.20;33.40;;;;;;6134716;28;80608;-63
2022/02/26 04:41:05;;;;;;;7.82;4.50;;;23.30;33.30;;;;;;6148945;28;80713;-65
2022/02/26 04:44:05;;;;;;;9.43;5.88;;;23.30;33.30;;;;;;6138246;28;80644;-63
2022/02/26 04:47:06;;;;;;;8.23;4.32;;;23.40;33.30;;;;;;6146767;28;81551;-62
2022/02/26 04:50:06;;;;;;;8.88;4.78;;;23.40;33.20;;;;;;6129726;28;81060;-65
2022/02/26 04:53:07;;;;;;;8.30;4.80;;;23.40;33.20;;;;;;6154988;28;81336;-67
2022/02/26 04:56:08;;;;;;;7.63;4.70;;;23.40;33.10;;;;;;6140730;28;82269;-64
2022/02/26 04:59:09;;;;;;;9.15;4.85;;;23.40;33.10;;;;;;6133651;28;80419;-63
2022/02/26 05:02:09;;;;;;;7.38;4.60;;;23.50;33.10;;;;;;6148351;28;81272;-63
2022/02/26 05:05:10;;;;;;;8.95;4.60;;;23.50;32.90;;;;;;6141486;28;80303;-62
2022/02/26 05:08:11;;;;;;;8.13;4.50;;;23.50;32.70;;;;;;6130409;28;82360;-62
2022/02/26 05:11:11;;;;;;;7.32;4.00;;;23.50;32.70;;;;;;6151818;28;80476;-62
2022/02/26 05:14:12;;;;;;;7.85;4.55;;;23.50;32.70;;;;;;6140082;28;81403;-62
2022/02/26 05:17:13;;;;;;;7.57;4.45;;;23.60;32.90;;;;;;6135289;28;80590;-62
2022/02/26 05:20:14;;;;;;;8.88;3.92;;;23.60;32.90;;;;;;6122040;28;81710;-63
2022/02/26 05:23:15;;;;;;;7.15;4.38;;;23.60;32.90;;;;;;6128083;28;80318;-62
2022/02/26 05:26:16;;;;;;;7.15;4.03;;;23.60;32.90;;;;;;6153333;28;80626;-62
2022/02/26 05:29:16;;;;;;;6.80;4.22;;;23.60;32.90;;;;;;6155344;28;80127;-62
2022/02/26 05:32:17;;;;;;;12.32;4.88;;;23.70;32.90;;;;;;6147741;28;80507;-62
2022/02/26 05:35:17;;;;;;;8.23;4.35;;;23.70;32.70;;;;;;6155660;28;80353;-61
2022/02/26 05:38:18;;;;;;;6.22;4.10;;;23.70;32.60;;;;;;6155480;28;80883;-61
2022/02/26 05:41:18;;;;;;;7.60;4.82;;;23.70;32.60;;;;;;6143522;28;80128;-61
2022/02/26 05:44:19;;;;;;;7.95;4.70;;;23.70;32.40;;;;;;6135309;28;80870;-62
2022/02/26 05:47:19;;;;;;;6.78;4.57;;;23.70;32.50;;;;;;6135733;28;80457;-62
2022/02/26 05:50:20;;;;;;;8.98;4.03;;;23.70;32.40;;;;;;6137864;28;80231;-62
2022/02/26 05:53:21;;;;;;;7.30;4.78;;;23.80;32.50;;;;;;6135385;28;80598;-60
2022/02/26 05:56:21;;;;;;;7.30;4.40;;;23.80;32.60;;;;;;6133960;28;80701;-62
2022/02/26 05:59:22;;;;;;;8.95;5.10;;;23.70;32.60;;;;;;6122958;28;81341;-63
2022/02/26 06:02:22;;;;;;;8.10;4.25;;;23.70;32.80;;;;;;6132170;28;84104;-63
2022/02/26 06:05:23;;;;;;;10.77;5.10;;;23.70;32.90;;;;;;6143361;28;80547;-60
2022/02/26 06:08:23;;;;;;;7.43;4.57;;;23.70;32.70;;;;;;6120295;28;80543;-61
2022/02/26 06:11:24;;;;;;;6.68;4.20;;;23.70;32.80;;;;;;6117718;28;81505;-61
2022/02/26 06:14:24;;;;;;;9.25;5.18;;;23.70;32.80;;;;;;6118818;28;80485;-63
2022/02/26 06:17:25;;;;;;;8.43;4.70;;;23.70;33.10;;;;;;6126548;28;80845;-62
2022/02/26 06:20:25;;;;;;;8.60;4.95;;;23.70;33.70;;;;;;6142945;28;81971;-63
2022/02/26 06:23:26;;;;;;;9.30;5.38;;;23.50;34.70;;;;;;6149190;28;84924;-64
2022/02/26 06:26:26;;;;;;;7.93;4.18;;;23.20;36.20;;;;;;6135319;28;81025;-64
2022/02/26 06:29:27;;;;;;;8.00;4.80;;;23.00;38.10;;;;;;6128711;28;82509;-62
2022/02/26 06:32:27;;;;;;;8.25;4.95;;;23.00;38.60;;;;;;6136927;28;81278;-65
2022/02/26 06:35:28;;;;;;;9.80;4.72;;;22.90;39.40;;;;;;6138112;28;80804;-63
2022/02/26 06:38:28;;;;;;;11.50;4.90;;;22.90;39.90;;;;;;6153612;28;81082;-60
2022/02/26 06:41:29;;;;;;;9.07;4.78;;;22.80;39.70;;;;;;6145083;28;80255;-62
2022/02/26 06:44:30;;;;;;;11.95;5.18;;;22.80;40.00;;;;;;6136103;28;82341;-62
2022/02/26 06:47:30;;;;;;;9.90;5.20;;;22.80;39.90;;;;;;6125345;28;82887;-61
2022/02/26 06:50:31;;;;;;;9.50;5.30;;;22.80;39.90;;;;;;6143164;28;80951;-62
2022/02/26 06:53:31;;;;;;;11.90;5.07;;;22.70;40.00;;;;;;6141349;28;80645;-62
2022/02/26 06:56:33;;;;;;;14.40;5.60;;;22.80;40.10;;;;;;6143832;28;82763;-64
2022/02/26 06:59:33;;;;;;;7.30;4.82;;;22.80;40.90;;;;;;6129927;28;81050;-64
2022/02/26 07:02:34;;;;;;;12.02;5.40;;;22.90;41.30;;;;;;6129972;28;80498;-64
2022/02/26 07:05:34;;;;;;;7.13;3.88;;;22.90;41.20;;;;;;6128950;28;80419;-64
2022/02/26 07:08:35;;;;;;;11.38;6.03;;;23.00;41.50;;;;;;6128863;28;80540;-63
2022/02/26 07:11:35;;;;;;;7.93;4.80;;;23.00;41.60;;;;;;6129913;28;80239;-62
2022/02/26 07:14:36;;;;;;;13.23;5.50;;;23.00;41.80;;;;;;6129262;28;80327;-64
2022/02/26 07:17:36;;;;;;;7.97;5.05;;;23.10;41.80;;;;;;6132437;28;81750;-63
2022/02/26 07:20:37;;;;;;;7.93;4.68;;;23.10;41.70;;;;;;6125018;28;80788;-64
2022/02/26 07:23:37;;;;;;;10.23;5.05;;;23.10;41.70;;;;;;6131786;28;81032;-65
2022/02/26 07:26:38;;;;;;;8.90;5.30;;;23.20;41.80;;;;;;6134165;28;80732;-63
2022/02/26 07:29:39;;;;;;;9.18;5.32;;;23.20;41.60;;;;;;6130928;28;80555;-62
2022/02/26 07:32:39;;;;;;;9.48;4.85;;;23.20;41.70;;;;;;6123513;28;80502;-64
2022/02/26 07:35:40;;;;;;;8.75;4.72;;;23.20;41.80;;;;;;6118371;28;81637;-65
2022/02/26 07:38:40;;;;;;;9.45;5.20;;;23.30;41.80;;;;;;6117503;28;81658;-65
2022/02/26 07:41:41;;;;;;;9.75;5.00;;;23.30;41.70;;;;;;6120113;28;83051;-65
2022/02/26 07:44:41;;;;;;;12.80;5.78;;;23.30;41.60;;;;;;6125675;28;82737;-64
2022/02/26 07:47:42;;;;;;;10.82;5.22;;;23.40;41.60;;;;;;6122656;28;81152;-63
2022/02/26 07:50:43;;;;;;;9.98;4.80;;;23.40;41.80;;;;;;6128436;28;80469;-64
2022/02/26 07:53:44;;;;;;;12.30;5.53;;;23.40;42.10;;;;;;6117982;28;80757;-64
2022/02/26 07:56:45;;;;;;;12.38;5.22;;;23.50;42.20;;;;;;6118524;28;83298;-62
2022/02/26 07:59:45;;;;;;;8.95;5.03;;;23.60;42.20;;;;;;6122012;28;81639;-65
2022/02/26 08:02:46;;;;;;;13.27;5.82;;;23.60;42.40;;;;;;6115368;28;83469;-62
2022/02/26 08:05:46;;;;;;;11.07;5.40;;;23.60;42.40;;;;;;6122557;28;81681;-64
2022/02/26 08:08:47;;;;;;;11.88;5.65;;;23.60;42.30;;;;;;6119262;28;81119;-63
2022/02/26 08:11:48;;;;;;;10.52;5.63;;;23.50;42.10;;;;;;6113283;28;83511;-65
2022/02/26 08:14:48;;;;;;;12.75;6.47;;;23.50;42.30;;;;;;6122951;28;81643;-65
2022/02/26 08:17:49;;;;;;;8.82;5.22;;;23.40;42.40;;;;;;6119315;28;80742;-64
2022/02/26 08:20:50;;;;;;;11.80;6.13;;;23.30;42.30;;;;;;6119368;28;80341;-64
2022/02/26 08:23:50;;;;;;;11.50;6.45;;;23.20;42.40;;;;;;6122707;28;80591;-62
2022/02/26 08:26:51;;;;;;;9.60;6.03;;;23.20;42.70;;;;;;6121665;28;80363;-64
2022/02/26 08:29:51;;;;;;;10.15;5.68;;;23.20;42.60;;;;;;6125733;28;80497;-63
2022/02/26 08:32:52;;;;;;;11.60;6.18;;;23.20;42.50;;;;;;6152012;28;80680;-61
2022/02/26 08:35:53;;;;;;;15.77;6.78;;;23.30;42.60;;;;;;6136341;28;80645;-61
2022/02/26 08:38:53;;;;;;;12.57;6.43;;;23.30;42.40;;;;;;6133275;28;80385;-61
2022/02/26 08:41:54;;;;;;;10.88;5.82;;;23.30;42.50;;;;;;6133782;28;80481;-67
2022/02/26 08:44:54;;;;;;;14.85;6.85;;;23.40;42.40;;;;;;6132427;28;80424;-67
2022/02/26 08:47:55;;;;;;;13.93;6.38;;;23.40;42.10;;;;;;6130171;28;80909;-67
2022/02/26 08:50:55;;;;;;;13.00;6.78;;;23.50;42.20;;;;;;6129773;28;81403;-67
2022/02/26 08:53:56;;;;;;;12.20;6.68;;;23.60;43.00;;;;;;6133817;28;81794;-64
2022/02/26 08:56:56;;;;;;;14.95;6.10;;;23.60;42.60;;;;;;6139571;28;81013;-64
2022/02/26 08:59:57;;;;;;;13.55;6.95;;;23.70;42.40;;;;;;6120459;28;81697;-65
2022/02/26 09:02:58;;;;;;;10.48;5.75;;;23.70;43.00;;;;;;6117705;28;80396;-66
2022/02/26 09:05:58;;;;;;;13.90;7.15;;;23.70;43.20;;;;;;6122032;28;80246;-65
2022/02/26 09:08:59;;;;;;;13.80;6.55;;;23.60;42.90;;;;;;6117921;28;80631;-65
2022/02/26 09:11:59;;;;;;;15.82;6.38;;;23.60;43.20;;;;;;6132899;28;80304;-63
2022/02/26 09:15:00;;;;;;;11.55;6.93;;;23.50;43.50;;;;;;6127215;28;82117;-63
2022/02/26 09:18:00;;;;;;;13.88;7.18;;;23.40;43.50;;;;;;6131592;28;80307;-65
2022/02/26 09:21:01;;;;;;;18.60;6.65;;;23.40;44.00;;;;;;6126397;28;80986;-64
2022/02/26 09:24:01;;;;;;;12.68;7.35;;;23.40;44.20;;;;;;6130544;28;80361;-62
2022/02/26 09:27:02;;;;;;;12.57;6.75;;;23.30;44.00;;;;;;6132938;28;81648;-65
2022/02/26 09:30:02;;;;;;;12.18;6.72;;;23.30;44.00;;;;;;6145629;28;86547;-63
2022/02/26 09:33:04;;;;;;;13.75;7.20;;;23.20;44.20;;;;;;6151526;28;81778;-65
2022/02/26 09:36:04;;;;;;;14.00;7.35;;;23.20;44.40;;;;;;6139142;28;81506;-64
2022/02/26 09:39:06;;;;;;;14.32;7.38;;;23.20;44.20;;;;;;6129305;28;81495;-64
2022/02/26 09:42:06;;;;;;;13.70;7.75;;;23.10;44.20;;;;;;6132783;28;81663;-66
2022/02/26 09:45:07;;;;;;;14.50;7.32;;;23.10;44.20;;;;;;6124661;28;81849;-63
2022/02/26 09:48:08;;;;;;;17.25;7.55;;;23.20;44.30;;;;;;6131027;28;80728;-64
2022/02/26 09:51:08;;;;;;;12.32;7.00;;;23.10;44.50;;;;;;6127593;28;81341;-64
2022/02/26 09:54:09;;;;;;;15.70;6.97;;;23.20;44.50;;;;;;6133965;28;81420;-64
2022/02/26 09:57:09;;;;;;;19.40;7.28;;;23.10;44.70;;;;;;6125164;28;81192;-64
2022/02/26 10:00:10;;;;;;;11.48;6.80;;;23.10;45.00;;;;;;6123458;28;81303;-64
2022/02/26 10:03:10;;;;;;;14.52;7.18;;;23.10;45.00;;;;;;6129812;28;80748;-63
2022/02/26 10:06:17;;;;;;;12.27;6.70;;;23.10;44.80;;;;;;6135225;28;80390;-64
2022/02/26 10:09:18;;;;;;;17.52;7.35;;;23.00;44.90;;;;;;6126497;28;80544;-64
2022/02/26 10:12:18;;;;;;;15.25;7.85;;;23.00;45.00;;;;;;6145312;28;80555;-64
2022/02/26 10:15:19;;;;;;;17.77;8.52;;;23.00;45.10;;;;;;6136407;28;80569;-64
2022/02/26 10:18:21;;;;;;;15.32;8.10;;;22.90;45.00;;;;;;6148320;28;80539;-64
2022/02/26 10:21:22;;;;;;;17.80;8.07;;;22.90;45.20;;;;;;6149099;28;82286;-63
2022/02/26 10:24:22;;;;;;;19.75;7.95;;;23.00;45.50;;;;;;6131916;28;81023;-62
2022/02/26 10:27:23;;;;;;;20.90;9.23;;;23.00;45.80;;;;;;6128828;28;80456;-62
2022/02/26 10:30:23;;;;;;;19.10;9.43;;;23.00;45.10;;;;;;6127575;28;81274;-62
2022/02/26 10:33:24;;;;;;;17.13;9.65;;;22.90;43.90;;;;;;6127114;28;81336;-63
2022/02/26 10:36:25;;;;;;;20.30;10.05;;;22.80;43.00;;;;;;6132669;28;80607;-61
2022/02/26 10:39:25;;;;;;;21.67;10.02;;;22.80;42.20;;;;;;6116739;28;86262;-62
2022/02/26 10:42:26;;;;;;;16.30;8.95;;;22.80;41.50;;;;;;6118849;28;83267;-61
2022/02/26 10:45:27;;;;;;;20.30;9.68;;;22.80;40.90;;;;;;6117278;28;82889;-62
2022/02/26 10:48:27;;;;;;;16.88;9.32;;;22.70;40.30;;;;;;6119486;28;81539;-61
2022/02/26 10:51:28;;;;;;;19.95;10.05;;;22.80;39.80;;;;;;6117573;28;81709;-62
2022/02/26 10:54:28;;;;;;;19.35;9.82;;;22.80;39.30;;;;;;6122995;28;82894;-62
2022/02/26 10:57:29;;;;;;;22.65;10.48;;;22.80;39.00;;;;;;6123475;28;83463;-62
2022/02/26 11:00:29;;;;;;;22.80;10.60;;;22.80;38.80;;;;;;6116550;28;83171;-62
2022/02/26 11:03:30;;;;;;;18.45;9.75;;;22.90;38.60;;;;;;6113195;28;83206;-63
2022/02/26 11:06:30;;;;;;;19.73;9.32;;;23.00;38.70;;;;;;6118239;28;83135;-64
2022/02/26 11:09:31;;;;;;;19.63;10.25;;;23.00;38.10;;;;;;6135101;28;80702;-64
2022/02/26 11:12:31;;;;;;;19.63;9.88;;;23.00;38.10;;;;;;6140106;28;84757;-63
2022/02/26 11:15:32;;;;;;;19.80;10.30;;;23.00;38.40;;;;;;6151221;28;84512;-64
2022/02/26 11:18:32;;;;;;;18.55;8.48;;;23.10;39.10;;;;;;6137046;28;84903;-62
2022/02/26 11:21:33;;;;;;;15.98;8.70;;;23.10;39.40;;;;;;6124422;28;84459;-61
2022/02/26 11:24:34;;;;;;;17.63;8.65;;;23.20;40.00;;;;;;6134835;28;81204;-63
2022/02/26 11:27:34;;;;;;;18.20;8.25;;;23.20;40.50;;;;;;6147615;28;82010;-63
2022/02/26 11:30:35;;;;;;;18.88;8.90;;;23.20;40.80;;;;;;6127163;28;82805;-63
2022/02/26 11:33:36;;;;;;;16.15;7.65;;;23.20;41.10;;;;;;6153918;28;80315;-63
2022/02/26 11:36:36;;;;;;;12.75;6.90;;;23.30;41.50;;;;;;6149119;28;81089;-63
2022/02/26 11:39:37;;;;;;;13.18;7.25;;;23.40;41.70;;;;;;6135478;28;80315;-62
2022/02/26 11:42:37;;;;;;;14.65;7.88;;;23.40;41.90;;;;;;6140845;28;88409;-62
2022/02/26 11:45:38;;;;;;;14.45;7.60;;;23.40;42.20;;;;;;6149390;28;83300;-62
2022/02/26 11:48:38;;;;;;;20.92;8.32;;;23.40;42.40;;;;;;6135925;28;80738;-62
2022/02/26 11:51:39;;;;;;;16.75;7.57;;;23.50;42.70;;;;;;6129141;28;82078;-62
2022/02/26 11:54:39;;;;;;;15.73;7.47;;;23.50;43.20;;;;;;6128562;28;82097;-62
2022/02/26 11:57:40;;;;;;;17.85;8.52;;;23.60;43.60;;;;;;6136621;28;80661;-62
2022/02/26 12:00:40;;;;;;;14.15;7.18;;;23.60;43.70;;;;;;6150149;28;80666;-62
2022/02/26 12:03:41;;;;;;;13.20;7.55;;;23.60;43.80;;;;;;6140041;28;80475;-62
2022/02/26 12:06:41;;;;;;;18.55;7.25;;;23.60;43.90;;;;;;6151125;28;80787;-62
2022/02/26 12:09:42;;;;;;;14.25;6.90;;;23.60;43.90;;;;;;6134257;28;81628;-62
2022/02/26 12:12:42;;;;;;;14.82;7.15;;;23.60;43.80;;;;;;6134800;28;80476;-62
2022/02/26 12:15:43;;;;;;;12.38;6.63;;;23.60;43.70;;;;;;6148654;28;80591;-62
2022/02/26 12:18:43;;;;;;;15.65;6.68;;;23.60;43.60;;;;;;6145413;28;81488;-62
2022/02/26 12:21:44;;;;;;;17.58;6.57;;;23.60;43.40;;;;;;6134016;28;82475;-62
2022/02/26 12:24:45;;;;;;;11.93;6.00;;;23.60;43.60;;;;;;6126638;28;80643;-63
2022/02/26 12:27:45;;;;;;;10.23;6.10;;;23.50;43.20;;;;;;6133901;28;80430;-62
2022/02/26 12:30:46;;;;;;;10.88;6.35;;;23.50;43.00;;;;;;6121230;28;81755;-61
2022/02/26 12:33:48;;;;;;;10.95;6.50;;;23.50;43.00;;;;;;6118167;28;80295;-61
2022/02/26 12:36:48;;;;;;;11.10;6.60;;;23.40;43.30;;;;;;6122616;28;80880;-60
2022/02/26 12:39:50;;;;;;;11.57;6.28;;;23.40;43.80;;;;;;6129158;28;80858;-61
2022/02/26 12:42:50;;;;;;;12.13;6.47;;;23.40;44.20;;;;;;6124763;28;81404;-61
2022/02/26 12:45:51;;;;;;;14.73;6.60;;;23.40;44.60;;;;;;6120928;28;83670;-61
2022/02/26 12:48:51;;;;;;;11.65;6.05;;;23.50;44.60;;;;;;6129464;28;81381;-62
2022/02/26 12:51:52;;;;;;;12.20;6.55;;;23.50;44.70;;;;;;6128342;28;80730;-61
2022/02/26 12:54:53;;;;;;;16.67;7.68;;;23.60;44.80;;;;;;6139915;28;86223;-64
2022/02/26 12:57:53;;;;;;;10.70;6.68;;;23.60;45.00;;;;;;6155087;28;81703;-62
2022/02/26 13:00:54;;;;;;;10.85;6.47;;;23.70;45.30;;;;;;6132240;28;80801;-63
2022/02/26 13:03:54;;;;;;;15.50;6.38;;;23.80;45.30;;;;;;6133544;28;81496;-63
2022/02/26 13:06:55;;;;;;;10.32;6.13;;;23.80;45.00;;;;;;6133849;28;82800;-61
2022/02/26 13:09:55;;;;;;;11.77;6.00;;;23.90;45.00;;;;;;6131360;28;81025;-63
2022/02/26 13:12:56;;;;;;;11.02;6.43;;;23.80;45.20;;;;;;6136747;28;80659;-62
2022/02/26 13:15:56;;;;;;;10.23;6.50;;;23.70;45.30;;;;;;6134113;28;80521;-61
2022/02/26 13:18:57;;;;;;;12.38;6.10;;;23.70;45.60;;;;;;6134676;28;80773;-62
2022/02/26 13:21:57;;;;;;;10.95;6.45;;;23.70;45.60;;;;;;6127433;28;83233;-62
2022/02/26 13:24:58;;;;;;;10.80;6.15;;;23.60;45.80;;;;;;6134669;28;80769;-62
2022/02/26 13:27:58;;;;;;;9.35;5.72;;;23.60;45.90;;;;;;6137234;28;81230;-61
2022/02/26 13:30:59;;;;;;;15.13;6.05;;;23.50;46.00;;;;;;6125950;28;80793;-61
2022/02/26 13:33:59;;;;;;;9.93;5.60;;;23.50;46.00;;;;;;6123353;28;82296;-59
2022/02/26 13:37:00;;;;;;;11.13;6.43;;;23.50;46.10;;;;;;6132996;28;80471;-63
2022/02/26 13:40:02;;;;;;;10.68;5.95;;;23.40;46.20;;;;;;6137181;28;80753;-62
2022/02/26 13:43:02;;;;;;;8.65;5.63;;;23.40;46.20;;;;;;6141431;28;81401;-60
2022/02/26 13:46:03;;;;;;;10.50;6.10;;;23.40;46.50;;;;;;6143875;28;81098;-62
2022/02/26 13:49:03;;;;;;;11.70;5.63;;;23.40;46.80;;;;;;6139549;28;80463;-61
2022/02/26 13:52:04;;;;;;;14.77;6.30;;;23.40;47.20;;;;;;6140879;28;80511;-61
2022/02/26 13:55:07;;;;;;;10.32;5.57;;;23.30;47.50;;;;;;6130132;28;80353;-61
2022/02/26 13:58:08;;;;;;;11.80;5.25;;;23.30;47.60;;;;;;6132187;28;81303;-61
2022/02/26 14:01:08;;;;;;;10.65;5.45;;;23.40;47.80;;;;;;6138183;28;80471;-61
2022/02/26 14:04:09;;;;;;;9.57;5.40;;;23.30;47.80;;;;;;6146787;28;81420;-61
2022/02/26 14:07:09;;;;;;;7.93;5.22;;;23.30;47.80;;;;;;6153370;28;81425;-61
2022/02/26 14:10:10;;;;;;;8.93;6.10;;;23.30;47.70;;;;;;6139287;28;82103;-60
2022/02/26 14:13:10;;;;;;;11.00;5.53;;;23.20;47.90;;;;;;6150694;28;80482;-61
2022/02/26 14:16:11;;;;;;;11.27;5.25;;;23.20;47.90;;;;;;6133676;28;80656;-60
2022/02/26 14:19:11;;;;;;;12.85;5.32;;;23.20;47.40;;;;;;6126113;28;80770;-63
2022/02/26 14:22:12;;;;;;;9.05;5.15;;;23.20;47.50;;;;;;6133634;28;81385;-62
2022/02/26 14:25:13;;;;;;;8.80;5.10;;;23.10;47.40;;;;;;6136672;28;80632;-65
2022/02/26 14:28:13;;;;;;;8.38;4.63;;;23.10;47.20;;;;;;6131908;28;81686;-63
2022/02/26 14:31:14;;;;;;;8.43;4.65;;;23.00;47.50;;;;;;6132788;28;80494;-62
2022/02/26 14:34:15;;;;;;;11.45;4.93;;;23.00;47.30;;;;;;6138172;28;81393;-62
2022/02/26 14:37:15;;;;;;;9.35;5.18;;;23.00;47.30;;;;;;6125908;28;82579;-63
2022/02/26 14:40:17;;;;;;;9.10;5.25;;;22.90;47.60;;;;;;6118214;28;82096;-62
2022/02/26 14:43:17;;;;;;;9.20;5.18;;;23.00;47.50;;;;;;6118901;28;80450;-61
2022/02/26 14:46:18;;;;;;;9.23;5.05;;;23.00;47.70;;;;;;6113210;28;81418;-62
2022/02/26 14:49:18;;;;;;;10.57;5.70;;;23.00;47.60;;;;;;6115434;28;81490;-62
2022/02/26 14:52:19;;;;;;;9.30;4.80;;;23.00;47.50;;;;;;6115903;28;80667;-62
2022/02/26 14:55:19;;;;;;;11.93;6.10;;;23.00;47.50;;;;;;6112483;28;81308;-62
2022/02/26 14:58:20;;;;;;;17.92;5.75;;;22.90;47.30;;;;;;6119750;28;80469;-62
2022/02/26 15:01:20;;;;;;;10.65;6.07;;;22.90;47.40;;;;;;6118269;28;80677;-62
2022/02/26 15:04:22;;;;;;;14.27;6.88;;;22.90;47.60;;;;;;6119735;28;81414;-62
2022/02/26 15:07:22;;;;;;;17.92;6.43;;;22.80;47.60;;;;;;6119418;28;81428;-62
2022/02/26 15:10:23;;;;;;;10.98;6.88;;;22.90;47.50;;;;;;6121592;28;81780;-62
2022/02/26 15:13:23;;;;;;;14.35;6.55;;;22.80;47.40;;;;;;6126365;28;80908;-59
2022/02/26 15:16:24;;;;;;;12.50;6.88;;;23.00;46.80;;;;;;6122126;28;80618;-60
2022/02/26 15:19:26;;;;;;;10.18;5.28;;;23.20;46.00;;;;;;6123036;28;80488;-61
2022/02/26 15:22:26;;;;;;;11.32;6.57;;;23.40;45.50;;;;;;6116707;28;81577;-61
2022/02/26 15:25:27;;;;;;;10.95;6.18;;;23.40;44.90;;;;;;6126373;28;80476;-62
2022/02/26 15:28:27;;;;;;;16.60;6.25;;;23.50;44.40;;;;;;6124970;28;82014;-61
2022/02/26 15:31:28;;;;;;;11.32;6.25;;;23.50;44.00;;;;;;6121795;28;81771;-62
2022/02/26 15:34:28;;;;;;;9.23;6.30;;;23.60;43.80;;;;;;6136118;28;81859;-62